sensor_id;sensor_type;location;lat;lon;timestamp;P1;durP1;ratioP1;P2;durP2;ratioP2
62796;SDS011;48839;48.546;-4.178;2023-02-28T00:02:20;6.22;;;3.05;;
62796;SDS011;48839;48.546;-4.178;2023-02-28T00:04:46;4.00;;;2.35;;
62796;SDS011;48839;48.546;-4.178;2023-02-28T00:07:18;13.93;;;3.10;;
62796;SDS011;48839;48.546;-4.178;2023-02-28T00:09:44;14.65;;;3.53;;
62796;SDS011;48839;48.546;-4.178;2023-02-28T00:12:10;10.27;;;2.80;;
62796;SDS011;48839;48.546;-4.178;2023-02-28T00:14:36;3.15;;;2.42;;
62796;SDS011;48839;48.546;-4.178;2023-02-28T00:17:02;7.72;;;2.35;;
62796;SDS011;48839;48.546;-4.178;2023-02-28T00:19:28;3.55;;;2.00;;
62796;SDS011;48839;48.546;-4.178;2023-02-28T00:21:54;5.07;;;2.25;;
62796;SDS011;48839;48.546;-4.178;2023-02-28T00:24:20;5.13;;;2.45;;
62796;SDS011;48839;48.546;-4.178;2023-02-28T00:26:46;4.13;;;2.17;;
62796;SDS011;48839;48.546;-4.178;2023-02-28T00:29:12;5.68;;;2.25;;
62796;SDS011;48839;48.546;-4.178;2023-02-28T00:31:38;8.25;;;3.00;;
62796;SDS011;48839;48.546;-4.178;2023-02-28T00:34:04;3.35;;;1.95;;
62796;SDS011;48839;48.546;-4.178;2023-02-28T00:36:30;4.05;;;2.10;;
62796;SDS011;48839;48.546;-4.178;2023-02-28T00:38:56;5.18;;;2.22;;
62796;SDS011;48839;48.546;-4.178;2023-02-28T00:41:22;4.50;;;2.17;;
62796;SDS011;48839;48.546;-4.178;2023-02-28T00:43:48;4.25;;;2.25;;
62796;SDS011;48839;48.546;-4.178;2023-02-28T00:46:14;7.30;;;2.63;;
62796;SDS011;48839;48.546;-4.178;2023-02-28T00:48:40;6.57;;;2.42;;
62796;SDS011;48839;48.546;-4.178;2023-02-28T00:51:06;4.20;;;1.80;;
62796;SDS011;48839;48.546;-4.178;2023-02-28T00:53:32;8.00;;;2.10;;
62796;SDS011;48839;48.546;-4.178;2023-02-28T00:55:58;7.07;;;2.70;;
62796;SDS011;48839;48.546;-4.178;2023-02-28T00:58:24;6.00;;;2.28;;
62796;SDS011;48839;48.546;-4.178;2023-02-28T01:00:51;9.13;;;3.13;;
62796;SDS011;48839;48.546;-4.178;2023-02-28T01:03:18;11.45;;;4.53;;
62796;SDS011;48839;48.546;-4.178;2023-02-28T01:05:44;11.73;;;3.63;;
62796;SDS011;48839;48.546;-4.178;2023-02-28T01:08:10;4.60;;;2.92;;
62796;SDS011;48839;48.546;-4.178;2023-02-28T01:10:36;3.75;;;2.30;;
62796;SDS011;48839;48.546;-4.178;2023-02-28T01:13:03;6.30;;;2.25;;
62796;SDS011;48839;48.546;-4.178;2023-02-28T01:15:29;9.35;;;2.75;;
62796;SDS011;48839;48.546;-4.178;2023-02-28T01:17:57;3.85;;;2.35;;
62796;SDS011;48839;48.546;-4.178;2023-02-28T01:20:23;6.57;;;2.78;;
62796;SDS011;48839;48.546;-4.178;2023-02-28T01:22:49;7.85;;;2.58;;
62796;SDS011;48839;48.546;-4.178;2023-02-28T01:25:15;3.97;;;2.22;;
62796;SDS011;48839;48.546;-4.178;2023-02-28T01:27:41;3.00;;;1.75;;
62796;SDS011;48839;48.546;-4.178;2023-02-28T01:30:08;7.72;;;2.00;;
62796;SDS011;48839;48.546;-4.178;2023-02-28T01:32:34;8.57;;;2.20;;
62796;SDS011;48839;48.546;-4.178;2023-02-28T01:35:00;3.17;;;1.70;;
62796;SDS011;48839;48.546;-4.178;2023-02-28T01:37:27;5.75;;;1.77;;
62796;SDS011;48839;48.546;-4.178;2023-02-28T01:39:53;9.50;;;2.33;;
62796;SDS011;48839;48.546;-4.178;2023-02-28T01:42:19;4.88;;;1.92;;
62796;SDS011;48839;48.546;-4.178;2023-02-28T01:47:20;6.72;;;1.88;;
62796;SDS011;48839;48.546;-4.178;2023-02-28T01:49:47;3.88;;;1.75;;
62796;SDS011;48839;48.546;-4.178;2023-02-28T01:52:13;12.52;;;2.33;;
62796;SDS011;48839;48.546;-4.178;2023-02-28T01:54:43;4.05;;;1.88;;
62796;SDS011;48839;48.546;-4.178;2023-02-28T01:57:11;10.73;;;2.10;;
62796;SDS011;48839;48.546;-4.178;2023-02-28T01:59:43;4.78;;;2.38;;
62796;SDS011;48839;48.546;-4.178;2023-02-28T02:02:12;2.88;;;1.30;;
62796;SDS011;48839;48.546;-4.178;2023-02-28T02:04:40;7.55;;;1.92;;
62796;SDS011;48839;48.546;-4.178;2023-02-28T02:07:08;2.60;;;1.67;;
62796;SDS011;48839;48.546;-4.178;2023-02-28T02:09:34;5.78;;;1.70;;
62796;SDS011;48839;48.546;-4.178;2023-02-28T02:12:01;2.40;;;1.42;;
62796;SDS011;48839;48.546;-4.178;2023-02-28T02:14:40;5.00;;;1.80;;
62796;SDS011;48839;48.546;-4.178;2023-02-28T02:17:18;4.97;;;1.50;;
62796;SDS011;48839;48.546;-4.178;2023-02-28T02:25:19;3.63;;;1.73;;
62796;SDS011;48839;48.546;-4.178;2023-02-28T02:30:25;2.63;;;1.35;;
62796;SDS011;48839;48.546;-4.178;2023-02-28T02:41:04;6.88;;;1.52;;
62796;SDS011;48839;48.546;-4.178;2023-02-28T02:43:29;3.35;;;1.67;;
62796;SDS011;48839;48.546;-4.178;2023-02-28T02:46:02;4.85;;;1.70;;
62796;SDS011;48839;48.546;-4.178;2023-02-28T02:48:30;4.65;;;1.40;;
62796;SDS011;48839;48.546;-4.178;2023-02-28T02:50:58;1.67;;;1.15;;
62796;SDS011;48839;48.546;-4.178;2023-02-28T02:53:27;4.32;;;1.30;;
62796;SDS011;48839;48.546;-4.178;2023-02-28T02:55:54;6.72;;;2.00;;
62796;SDS011;48839;48.546;-4.178;2023-02-28T02:58:22;4.47;;;1.52;;
62796;SDS011;48839;48.546;-4.178;2023-02-28T03:00:51;6.85;;;1.70;;
62796;SDS011;48839;48.546;-4.178;2023-02-28T03:03:18;7.32;;;1.60;;
62796;SDS011;48839;48.546;-4.178;2023-02-28T03:05:54;5.05;;;1.58;;
62796;SDS011;48839;48.546;-4.178;2023-02-28T03:08:20;2.72;;;1.50;;
62796;SDS011;48839;48.546;-4.178;2023-02-28T03:10:48;6.80;;;2.10;;
62796;SDS011;48839;48.546;-4.178;2023-02-28T03:13:37;7.40;;;1.98;;
62796;SDS011;48839;48.546;-4.178;2023-02-28T03:21:08;18.73;;;2.60;;
62796;SDS011;48839;48.546;-4.178;2023-02-28T03:24:02;10.38;;;2.20;;
62796;SDS011;48839;48.546;-4.178;2023-02-28T03:26:29;4.53;;;1.88;;
62796;SDS011;48839;48.546;-4.178;2023-02-28T03:29:05;2.03;;;1.80;;
62796;SDS011;48839;48.546;-4.178;2023-02-28T03:31:39;3.55;;;2.35;;
62796;SDS011;48839;48.546;-4.178;2023-02-28T03:36:39;9.20;;;2.15;;
62796;SDS011;48839;48.546;-4.178;2023-02-28T03:39:09;6.60;;;2.63;;
62796;SDS011;48839;48.546;-4.178;2023-02-28T03:41:42;12.32;;;4.15;;
62796;SDS011;48839;48.546;-4.178;2023-02-28T03:44:13;8.30;;;3.03;;
62796;SDS011;48839;48.546;-4.178;2023-02-28T03:46:41;4.85;;;2.90;;
62796;SDS011;48839;48.546;-4.178;2023-02-28T03:49:13;6.05;;;2.10;;
62796;SDS011;48839;48.546;-4.178;2023-02-28T03:51:40;6.55;;;2.97;;
62796;SDS011;48839;48.546;-4.178;2023-02-28T03:54:12;3.60;;;1.92;;
62796;SDS011;48839;48.546;-4.178;2023-02-28T03:56:45;4.78;;;1.83;;
62796;SDS011;48839;48.546;-4.178;2023-02-28T03:59:21;1.95;;;1.30;;
62796;SDS011;48839;48.546;-4.178;2023-02-28T04:01:49;5.43;;;2.40;;
62796;SDS011;48839;48.546;-4.178;2023-02-28T04:04:16;10.65;;;2.13;;
62796;SDS011;48839;48.546;-4.178;2023-02-28T04:06:43;7.85;;;2.35;;
62796;SDS011;48839;48.546;-4.178;2023-02-28T04:09:10;4.03;;;1.40;;
62796;SDS011;48839;48.546;-4.178;2023-02-28T04:11:38;3.17;;;2.08;;
62796;SDS011;48839;48.546;-4.178;2023-02-28T04:14:04;9.27;;;2.00;;
62796;SDS011;48839;48.546;-4.178;2023-02-28T04:16:31;5.13;;;1.40;;
62796;SDS011;48839;48.546;-4.178;2023-02-28T04:18:57;5.07;;;1.60;;
62796;SDS011;48839;48.546;-4.178;2023-02-28T04:21:37;3.80;;;2.15;;
62796;SDS011;48839;48.546;-4.178;2023-02-28T04:24:04;5.88;;;2.65;;
62796;SDS011;48839;48.546;-4.178;2023-02-28T04:26:31;4.28;;;1.50;;
62796;SDS011;48839;48.546;-4.178;2023-02-28T04:28:58;5.47;;;2.25;;
62796;SDS011;48839;48.546;-4.178;2023-02-28T04:31:24;4.70;;;1.50;;
62796;SDS011;48839;48.546;-4.178;2023-02-28T04:33:50;8.30;;;2.53;;
62796;SDS011;48839;48.546;-4.178;2023-02-28T04:36:16;19.60;;;8.23;;
62796;SDS011;48839;48.546;-4.178;2023-02-28T04:38:43;14.85;;;6.93;;
62796;SDS011;48839;48.546;-4.178;2023-02-28T04:41:09;11.48;;;4.93;;
62796;SDS011;48839;48.546;-4.178;2023-02-28T04:43:35;5.32;;;2.28;;
62796;SDS011;48839;48.546;-4.178;2023-02-28T04:46:02;6.28;;;2.22;;
62796;SDS011;48839;48.546;-4.178;2023-02-28T04:48:29;4.50;;;2.25;;
62796;SDS011;48839;48.546;-4.178;2023-02-28T04:50:55;3.08;;;1.60;;
62796;SDS011;48839;48.546;-4.178;2023-02-28T04:53:25;4.05;;;2.65;;
62796;SDS011;48839;48.546;-4.178;2023-02-28T04:55:51;4.05;;;1.90;;
62796;SDS011;48839;48.546;-4.178;2023-02-28T04:58:17;8.20;;;1.83;;
62796;SDS011;48839;48.546;-4.178;2023-02-28T05:00:43;3.70;;;2.05;;
62796;SDS011;48839;48.546;-4.178;2023-02-28T05:03:09;5.55;;;2.35;;
62796;SDS011;48839;48.546;-4.178;2023-02-28T05:05:35;8.13;;;3.03;;
62796;SDS011;48839;48.546;-4.178;2023-02-28T05:08:01;7.13;;;2.80;;
62796;SDS011;48839;48.546;-4.178;2023-02-28T05:10:27;6.68;;;2.08;;
62796;SDS011;48839;48.546;-4.178;2023-02-28T05:12:53;4.18;;;1.80;;
62796;SDS011;48839;48.546;-4.178;2023-02-28T05:15:19;5.75;;;2.03;;
62796;SDS011;48839;48.546;-4.178;2023-02-28T05:17:45;7.25;;;2.30;;
62796;SDS011;48839;48.546;-4.178;2023-02-28T05:20:11;5.10;;;2.60;;
62796;SDS011;48839;48.546;-4.178;2023-02-28T05:22:38;5.90;;;2.70;;
62796;SDS011;48839;48.546;-4.178;2023-02-28T05:25:05;6.00;;;3.00;;
62796;SDS011;48839;48.546;-4.178;2023-02-28T05:27:31;7.07;;;4.05;;
62796;SDS011;48839;48.546;-4.178;2023-02-28T05:29:57;4.65;;;3.50;;
62796;SDS011;48839;48.546;-4.178;2023-02-28T05:32:24;7.22;;;3.75;;
62796;SDS011;48839;48.546;-4.178;2023-02-28T05:34:50;4.75;;;3.67;;
62796;SDS011;48839;48.546;-4.178;2023-02-28T05:37:16;5.43;;;2.92;;
62796;SDS011;48839;48.546;-4.178;2023-02-28T05:39:42;6.10;;;3.00;;
62796;SDS011;48839;48.546;-4.178;2023-02-28T05:42:08;9.55;;;3.25;;
62796;SDS011;48839;48.546;-4.178;2023-02-28T05:44:34;4.50;;;2.95;;
62796;SDS011;48839;48.546;-4.178;2023-02-28T05:47:00;3.30;;;2.08;;
62796;SDS011;48839;48.546;-4.178;2023-02-28T05:49:27;4.40;;;2.20;;
62796;SDS011;48839;48.546;-4.178;2023-02-28T05:51:53;4.47;;;2.10;;
62796;SDS011;48839;48.546;-4.178;2023-02-28T05:54:19;7.95;;;2.33;;
62796;SDS011;48839;48.546;-4.178;2023-02-28T05:56:45;6.00;;;3.78;;
62796;SDS011;48839;48.546;-4.178;2023-02-28T05:59:11;4.68;;;4.07;;
62796;SDS011;48839;48.546;-4.178;2023-02-28T06:01:38;3.22;;;2.92;;
62796;SDS011;48839;48.546;-4.178;2023-02-28T06:04:06;5.25;;;3.97;;
62796;SDS011;48839;48.546;-4.178;2023-02-28T06:06:32;7.10;;;3.78;;
62796;SDS011;48839;48.546;-4.178;2023-02-28T06:09:02;8.95;;;7.00;;
62796;SDS011;48839;48.546;-4.178;2023-02-28T06:11:28;9.05;;;6.30;;
62796;SDS011;48839;48.546;-4.178;2023-02-28T06:13:54;9.93;;;7.07;;
62796;SDS011;48839;48.546;-4.178;2023-02-28T06:16:21;8.70;;;3.95;;
62796;SDS011;48839;48.546;-4.178;2023-02-28T06:18:47;5.97;;;4.10;;
62796;SDS011;48839;48.546;-4.178;2023-02-28T06:21:13;8.75;;;3.72;;
62796;SDS011;48839;48.546;-4.178;2023-02-28T06:23:39;9.65;;;5.10;;
62796;SDS011;48839;48.546;-4.178;2023-02-28T06:26:05;14.30;;;5.82;;
62796;SDS011;48839;48.546;-4.178;2023-02-28T06:28:31;9.18;;;5.57;;
62796;SDS011;48839;48.546;-4.178;2023-02-28T06:30:57;14.05;;;6.40;;
62796;SDS011;48839;48.546;-4.178;2023-02-28T06:33:23;9.40;;;5.32;;
62796;SDS011;48839;48.546;-4.178;2023-02-28T06:35:50;10.05;;;5.85;;
62796;SDS011;48839;48.546;-4.178;2023-02-28T06:38:16;7.93;;;5.45;;
62796;SDS011;48839;48.546;-4.178;2023-02-28T06:40:43;10.80;;;6.22;;
62796;SDS011;48839;48.546;-4.178;2023-02-28T06:43:09;11.95;;;6.90;;
62796;SDS011;48839;48.546;-4.178;2023-02-28T06:45:40;10.32;;;6.80;;
62796;SDS011;48839;48.546;-4.178;2023-02-28T06:48:07;11.75;;;6.22;;
62796;SDS011;48839;48.546;-4.178;2023-02-28T06:50:33;11.93;;;6.75;;
62796;SDS011;48839;48.546;-4.178;2023-02-28T06:52:59;11.13;;;6.95;;
62796;SDS011;48839;48.546;-4.178;2023-02-28T06:55:25;14.70;;;7.40;;
62796;SDS011;48839;48.546;-4.178;2023-02-28T06:57:51;9.90;;;6.15;;
62796;SDS011;48839;48.546;-4.178;2023-02-28T07:00:17;16.80;;;6.40;;
62796;SDS011;48839;48.546;-4.178;2023-02-28T07:02:43;13.90;;;7.32;;
62796;SDS011;48839;48.546;-4.178;2023-02-28T07:05:09;8.32;;;5.85;;
62796;SDS011;48839;48.546;-4.178;2023-02-28T07:07:35;9.75;;;6.03;;
62796;SDS011;48839;48.546;-4.178;2023-02-28T07:10:03;11.98;;;7.25;;
62796;SDS011;48839;48.546;-4.178;2023-02-28T07:12:29;12.48;;;6.60;;
62796;SDS011;48839;48.546;-4.178;2023-02-28T07:14:55;8.35;;;5.80;;
62796;SDS011;48839;48.546;-4.178;2023-02-28T07:17:21;10.48;;;6.57;;
62796;SDS011;48839;48.546;-4.178;2023-02-28T07:19:47;12.60;;;6.53;;
62796;SDS011;48839;48.546;-4.178;2023-02-28T07:22:13;11.77;;;6.88;;
62796;SDS011;48839;48.546;-4.178;2023-02-28T07:24:39;9.43;;;5.78;;
62796;SDS011;48839;48.546;-4.178;2023-02-28T07:27:05;13.55;;;6.90;;
62796;SDS011;48839;48.546;-4.178;2023-02-28T07:29:31;14.90;;;7.18;;
62796;SDS011;48839;48.546;-4.178;2023-02-28T07:31:57;13.68;;;6.88;;
62796;SDS011;48839;48.546;-4.178;2023-02-28T07:34:23;14.38;;;7.57;;
62796;SDS011;48839;48.546;-4.178;2023-02-28T07:36:52;11.68;;;6.75;;
62796;SDS011;48839;48.546;-4.178;2023-02-28T07:39:19;16.73;;;8.35;;
62796;SDS011;48839;48.546;-4.178;2023-02-28T07:41:45;9.50;;;6.45;;
62796;SDS011;48839;48.546;-4.178;2023-02-28T07:44:11;19.17;;;7.75;;
62796;SDS011;48839;48.546;-4.178;2023-02-28T07:46:37;11.35;;;6.97;;
62796;SDS011;48839;48.546;-4.178;2023-02-28T07:49:04;12.48;;;7.82;;
62796;SDS011;48839;48.546;-4.178;2023-02-28T07:51:30;13.13;;;8.85;;
62796;SDS011;48839;48.546;-4.178;2023-02-28T07:53:56;13.32;;;7.07;;
62796;SDS011;48839;48.546;-4.178;2023-02-28T07:56:22;10.18;;;7.35;;
62796;SDS011;48839;48.546;-4.178;2023-02-28T07:58:48;17.38;;;8.45;;
62796;SDS011;48839;48.546;-4.178;2023-02-28T08:01:14;15.25;;;7.70;;
62796;SDS011;48839;48.546;-4.178;2023-02-28T08:03:41;14.38;;;8.25;;
62796;SDS011;48839;48.546;-4.178;2023-02-28T08:06:08;16.70;;;8.43;;
62796;SDS011;48839;48.546;-4.178;2023-02-28T08:08:34;13.25;;;8.32;;
62796;SDS011;48839;48.546;-4.178;2023-02-28T08:11:01;11.52;;;7.50;;
62796;SDS011;48839;48.546;-4.178;2023-02-28T08:13:27;16.10;;;8.57;;
62796;SDS011;48839;48.546;-4.178;2023-02-28T08:15:54;14.07;;;7.40;;
62796;SDS011;48839;48.546;-4.178;2023-02-28T08:18:21;18.58;;;9.13;;
62796;SDS011;48839;48.546;-4.178;2023-02-28T08:20:47;13.20;;;9.15;;
62796;SDS011;48839;48.546;-4.178;2023-02-28T08:23:13;16.55;;;8.73;;
62796;SDS011;48839;48.546;-4.178;2023-02-28T08:25:40;13.48;;;7.45;;
62796;SDS011;48839;48.546;-4.178;2023-02-28T08:28:06;13.27;;;7.68;;
62796;SDS011;48839;48.546;-4.178;2023-02-28T08:30:32;12.32;;;7.05;;
62796;SDS011;48839;48.546;-4.178;2023-02-28T08:32:58;12.55;;;8.15;;
62796;SDS011;48839;48.546;-4.178;2023-02-28T08:35:24;16.35;;;8.27;;
62796;SDS011;48839;48.546;-4.178;2023-02-28T08:37:50;12.77;;;7.43;;
62796;SDS011;48839;48.546;-4.178;2023-02-28T08:40:16;13.88;;;8.85;;
62796;SDS011;48839;48.546;-4.178;2023-02-28T08:42:45;13.55;;;8.68;;
62796;SDS011;48839;48.546;-4.178;2023-02-28T08:45:12;13.98;;;7.13;;
62796;SDS011;48839;48.546;-4.178;2023-02-28T08:47:38;17.40;;;8.05;;
62796;SDS011;48839;48.546;-4.178;2023-02-28T08:50:04;21.65;;;10.68;;
62796;SDS011;48839;48.546;-4.178;2023-02-28T08:52:31;15.73;;;8.75;;
62796;SDS011;48839;48.546;-4.178;2023-02-28T08:54:57;13.02;;;7.75;;
62796;SDS011;48839;48.546;-4.178;2023-02-28T08:57:23;24.05;;;12.10;;
62796;SDS011;48839;48.546;-4.178;2023-02-28T08:59:51;21.00;;;11.35;;
62796;SDS011;48839;48.546;-4.178;2023-02-28T09:02:17;20.40;;;10.57;;
62796;SDS011;48839;48.546;-4.178;2023-02-28T09:04:43;15.70;;;8.30;;
62796;SDS011;48839;48.546;-4.178;2023-02-28T09:07:12;13.93;;;8.93;;
62796;SDS011;48839;48.546;-4.178;2023-02-28T09:09:38;14.88;;;7.78;;
62796;SDS011;48839;48.546;-4.178;2023-02-28T09:12:18;13.48;;;7.97;;
62796;SDS011;48839;48.546;-4.178;2023-02-28T09:14:44;14.95;;;8.02;;
62796;SDS011;48839;48.546;-4.178;2023-02-28T09:17:10;12.18;;;8.15;;
62796;SDS011;48839;48.546;-4.178;2023-02-28T09:19:36;13.90;;;8.52;;
62796;SDS011;48839;48.546;-4.178;2023-02-28T09:22:02;13.18;;;7.72;;
62796;SDS011;48839;48.546;-4.178;2023-02-28T09:24:28;13.45;;;7.55;;
62796;SDS011;48839;48.546;-4.178;2023-02-28T09:26:56;11.00;;;6.97;;
62796;SDS011;48839;48.546;-4.178;2023-02-28T09:29:22;14.05;;;7.68;;
62796;SDS011;48839;48.546;-4.178;2023-02-28T09:31:48;12.07;;;7.00;;
62796;SDS011;48839;48.546;-4.178;2023-02-28T09:34:15;13.20;;;6.80;;
62796;SDS011;48839;48.546;-4.178;2023-02-28T09:36:42;12.18;;;8.13;;
62796;SDS011;48839;48.546;-4.178;2023-02-28T09:39:08;10.10;;;6.50;;
62796;SDS011;48839;48.546;-4.178;2023-02-28T09:41:38;14.15;;;7.43;;
62796;SDS011;48839;48.546;-4.178;2023-02-28T09:44:12;10.95;;;6.10;;
62796;SDS011;48839;48.546;-4.178;2023-02-28T09:46:41;11.93;;;8.05;;
62796;SDS011;48839;48.546;-4.178;2023-02-28T09:49:12;8.52;;;5.00;;
62796;SDS011;48839;48.546;-4.178;2023-02-28T09:51:45;9.35;;;6.45;;
62796;SDS011;48839;48.546;-4.178;2023-02-28T09:54:23;12.40;;;6.15;;
62796;SDS011;48839;48.546;-4.178;2023-02-28T10:06:52;9.90;;;5.47;;
62796;SDS011;48839;48.546;-4.178;2023-02-28T10:09:19;7.88;;;5.22;;
62796;SDS011;48839;48.546;-4.178;2023-02-28T10:11:48;6.65;;;5.28;;
62796;SDS011;48839;48.546;-4.178;2023-02-28T10:14:17;9.65;;;5.35;;
62796;SDS011;48839;48.546;-4.178;2023-02-28T10:21:51;9.20;;;5.75;;
62796;SDS011;48839;48.546;-4.178;2023-02-28T10:24:54;10.82;;;5.80;;
62796;SDS011;48839;48.546;-4.178;2023-02-28T10:27:17;12.60;;;6.18;;
62796;SDS011;48839;48.546;-4.178;2023-02-28T10:29:45;10.13;;;5.40;;
62796;SDS011;48839;48.546;-4.178;2023-02-28T10:32:13;9.23;;;5.55;;
62796;SDS011;48839;48.546;-4.178;2023-02-28T10:34:40;6.53;;;5.85;;
62796;SDS011;48839;48.546;-4.178;2023-02-28T10:37:06;8.60;;;5.45;;
62796;SDS011;48839;48.546;-4.178;2023-02-28T10:42:05;8.73;;;5.32;;
62796;SDS011;48839;48.546;-4.178;2023-02-28T10:44:31;8.18;;;5.88;;
62796;SDS011;48839;48.546;-4.178;2023-02-28T10:46:57;12.07;;;5.57;;
62796;SDS011;48839;48.546;-4.178;2023-02-28T10:49:24;7.60;;;5.35;;
62796;SDS011;48839;48.546;-4.178;2023-02-28T10:51:53;12.48;;;3.60;;
62796;SDS011;48839;48.546;-4.178;2023-02-28T10:54:29;7.03;;;3.88;;
62796;SDS011;48839;48.546;-4.178;2023-02-28T10:57:17;10.98;;;4.53;;
62796;SDS011;48839;48.546;-4.178;2023-02-28T10:59:43;5.72;;;4.43;;
62796;SDS011;48839;48.546;-4.178;2023-02-28T11:04:54;9.18;;;5.20;;
62796;SDS011;48839;48.546;-4.178;2023-02-28T11:07:21;8.80;;;6.05;;
62796;SDS011;48839;48.546;-4.178;2023-02-28T11:09:48;8.80;;;5.88;;
62796;SDS011;48839;48.546;-4.178;2023-02-28T11:12:33;10.20;;;6.03;;
62796;SDS011;48839;48.546;-4.178;2023-02-28T11:15:01;6.63;;;4.65;;
62796;SDS011;48839;48.546;-4.178;2023-02-28T11:17:30;8.43;;;6.15;;
62796;SDS011;48839;48.546;-4.178;2023-02-28T11:19:57;10.55;;;6.13;;
62796;SDS011;48839;48.546;-4.178;2023-02-28T11:22:28;11.88;;;5.63;;
62796;SDS011;48839;48.546;-4.178;2023-02-28T11:24:56;8.90;;;5.70;;
62796;SDS011;48839;48.546;-4.178;2023-02-28T11:27:40;7.45;;;5.50;;
62796;SDS011;48839;48.546;-4.178;2023-02-28T11:32:52;9.95;;;4.35;;
62796;SDS011;48839;48.546;-4.178;2023-02-28T11:37:51;8.38;;;4.72;;
62796;SDS011;48839;48.546;-4.178;2023-02-28T11:41:05;4.72;;;3.45;;
62796;SDS011;48839;48.546;-4.178;2023-02-28T11:48:40;2.10;;;1.90;;
62796;SDS011;48839;48.546;-4.178;2023-02-28T11:51:10;1.52;;;1.38;;
62796;SDS011;48839;48.546;-4.178;2023-02-28T12:01:18;3.25;;;2.05;;
62796;SDS011;48839;48.546;-4.178;2023-02-28T12:04:04;2.13;;;1.92;;
62796;SDS011;48839;48.546;-4.178;2023-02-28T12:06:38;2.78;;;2.10;;
62796;SDS011;48839;48.546;-4.178;2023-02-28T12:11:39;4.60;;;3.30;;
62796;SDS011;48839;48.546;-4.178;2023-02-28T12:19:25;7.13;;;2.65;;
62796;SDS011;48839;48.546;-4.178;2023-02-28T12:27:13;4.32;;;2.40;;
62796;SDS011;48839;48.546;-4.178;2023-02-28T12:34:47;10.63;;;2.40;;
62796;SDS011;48839;48.546;-4.178;2023-02-28T12:37:31;6.90;;;2.28;;
62796;SDS011;48839;48.546;-4.178;2023-02-28T12:40:00;4.00;;;1.98;;
62796;SDS011;48839;48.546;-4.178;2023-02-28T12:42:31;2.40;;;2.20;;
62796;SDS011;48839;48.546;-4.178;2023-02-28T12:44:59;2.40;;;2.13;;
62796;SDS011;48839;48.546;-4.178;2023-02-28T12:47:26;5.30;;;2.17;;
62796;SDS011;48839;48.546;-4.178;2023-02-28T12:49:59;3.85;;;2.50;;
62796;SDS011;48839;48.546;-4.178;2023-02-28T12:52:34;1.92;;;1.80;;
62796;SDS011;48839;48.546;-4.178;2023-02-28T12:55:05;4.03;;;1.73;;
62796;SDS011;48839;48.546;-4.178;2023-02-28T12:57:57;2.88;;;1.63;;
62796;SDS011;48839;48.546;-4.178;2023-02-28T13:00:29;4.88;;;2.30;;
62796;SDS011;48839;48.546;-4.178;2023-02-28T13:10:19;2.33;;;1.88;;
62796;SDS011;48839;48.546;-4.178;2023-02-28T13:12:49;2.75;;;1.60;;
62796;SDS011;48839;48.546;-4.178;2023-02-28T13:15:22;5.70;;;1.80;;
62796;SDS011;48839;48.546;-4.178;2023-02-28T13:17:52;7.70;;;2.33;;
62796;SDS011;48839;48.546;-4.178;2023-02-28T13:20:23;5.35;;;2.08;;
62796;SDS011;48839;48.546;-4.178;2023-02-28T13:22:50;5.70;;;1.90;;
62796;SDS011;48839;48.546;-4.178;2023-02-28T13:27:59;3.85;;;2.13;;
62796;SDS011;48839;48.546;-4.178;2023-02-28T13:35:46;1.50;;;1.23;;
62796;SDS011;48839;48.546;-4.178;2023-02-28T13:38:15;3.00;;;1.30;;
62796;SDS011;48839;48.546;-4.178;2023-02-28T13:40:41;3.88;;;1.75;;
62796;SDS011;48839;48.546;-4.178;2023-02-28T13:43:08;5.82;;;2.05;;
62796;SDS011;48839;48.546;-4.178;2023-02-28T13:45:34;2.28;;;1.55;;
62796;SDS011;48839;48.546;-4.178;2023-02-28T13:48:14;2.50;;;1.63;;
62796;SDS011;48839;48.546;-4.178;2023-02-28T13:50:41;1.65;;;1.55;;
62796;SDS011;48839;48.546;-4.178;2023-02-28T13:53:32;3.63;;;1.77;;
62796;SDS011;48839;48.546;-4.178;2023-02-28T14:06:33;3.00;;;1.38;;
62796;SDS011;48839;48.546;-4.178;2023-02-28T14:09:37;5.10;;;1.50;;
62796;SDS011;48839;48.546;-4.178;2023-02-28T14:11:39;2.80;;;1.38;;
62796;SDS011;48839;48.546;-4.178;2023-02-28T14:14:06;8.85;;;1.38;;
62796;SDS011;48839;48.546;-4.178;2023-02-28T14:21:36;3.00;;;1.35;;
62796;SDS011;48839;48.546;-4.178;2023-02-28T14:26:47;6.72;;;1.60;;
62796;SDS011;48839;48.546;-4.178;2023-02-28T14:37:03;1.77;;;1.50;;
62796;SDS011;48839;48.546;-4.178;2023-02-28T14:39:30;3.53;;;1.77;;
62796;SDS011;48839;48.546;-4.178;2023-02-28T14:41:57;3.00;;;1.88;;
62796;SDS011;48839;48.546;-4.178;2023-02-28T14:44:30;3.40;;;1.45;;
62796;SDS011;48839;48.546;-4.178;2023-02-28T14:46:57;6.22;;;1.58;;
62796;SDS011;48839;48.546;-4.178;2023-02-28T14:49:34;12.05;;;2.55;;
62796;SDS011;48839;48.546;-4.178;2023-02-28T14:52:23;5.68;;;1.63;;
62796;SDS011;48839;48.546;-4.178;2023-02-28T14:54:54;6.93;;;2.30;;
62796;SDS011;48839;48.546;-4.178;2023-02-28T14:57:22;5.13;;;1.60;;
62796;SDS011;48839;48.546;-4.178;2023-02-28T14:59:56;5.70;;;1.60;;
62796;SDS011;48839;48.546;-4.178;2023-02-28T15:02:23;2.65;;;1.65;;
62796;SDS011;48839;48.546;-4.178;2023-02-28T15:04:56;9.40;;;2.05;;
62796;SDS011;48839;48.546;-4.178;2023-02-28T15:07:23;7.25;;;1.42;;
62796;SDS011;48839;48.546;-4.178;2023-02-28T15:10:10;2.67;;;1.10;;
62796;SDS011;48839;48.546;-4.178;2023-02-28T15:12:36;1.75;;;1.20;;
62796;SDS011;48839;48.546;-4.178;2023-02-28T15:15:02;2.78;;;1.10;;
62796;SDS011;48839;48.546;-4.178;2023-02-28T15:17:29;3.58;;;1.30;;
62796;SDS011;48839;48.546;-4.178;2023-02-28T15:19:55;1.33;;;1.20;;
62796;SDS011;48839;48.546;-4.178;2023-02-28T15:22:55;3.45;;;0.90;;
62796;SDS011;48839;48.546;-4.178;2023-02-28T15:25:15;1.65;;;1.10;;
62796;SDS011;48839;48.546;-4.178;2023-02-28T15:27:43;2.25;;;1.02;;
62796;SDS011;48839;48.546;-4.178;2023-02-28T15:30:15;1.30;;;1.05;;
62796;SDS011;48839;48.546;-4.178;2023-02-28T15:32:42;3.92;;;1.70;;
62796;SDS011;48839;48.546;-4.178;2023-02-28T15:35:26;1.40;;;1.13;;
62796;SDS011;48839;48.546;-4.178;2023-02-28T15:37:56;2.30;;;1.00;;
62796;SDS011;48839;48.546;-4.178;2023-02-28T15:40:23;2.95;;;1.00;;
62796;SDS011;48839;48.546;-4.178;2023-02-28T15:43:13;2.13;;;0.95;;
62796;SDS011;48839;48.546;-4.178;2023-02-28T15:45:41;3.45;;;1.60;;
62796;SDS011;48839;48.546;-4.178;2023-02-28T15:51:02;6.38;;;1.42;;
62796;SDS011;48839;48.546;-4.178;2023-02-28T15:53:31;5.53;;;1.33;;
62796;SDS011;48839;48.546;-4.178;2023-02-28T15:55:59;1.83;;;1.02;;
62796;SDS011;48839;48.546;-4.178;2023-02-28T15:58:25;2.22;;;1.20;;
62796;SDS011;48839;48.546;-4.178;2023-02-28T16:01:06;6.50;;;1.20;;
62796;SDS011;48839;48.546;-4.178;2023-02-28T16:03:37;2.53;;;1.23;;
62796;SDS011;48839;48.546;-4.178;2023-02-28T16:06:37;2.22;;;1.10;;
62796;SDS011;48839;48.546;-4.178;2023-02-28T16:08:55;2.83;;;1.48;;
62796;SDS011;48839;48.546;-4.178;2023-02-28T16:11:21;3.28;;;1.27;;
62796;SDS011;48839;48.546;-4.178;2023-02-28T16:13:47;4.85;;;1.38;;
62796;SDS011;48839;48.546;-4.178;2023-02-28T16:16:15;8.85;;;1.27;;
62796;SDS011;48839;48.546;-4.178;2023-02-28T16:18:42;2.17;;;1.13;;
62796;SDS011;48839;48.546;-4.178;2023-02-28T16:21:08;1.98;;;1.40;;
62796;SDS011;48839;48.546;-4.178;2023-02-28T16:23:34;3.35;;;1.10;;
62796;SDS011;48839;48.546;-4.178;2023-02-28T16:26:02;1.55;;;0.95;;
62796;SDS011;48839;48.546;-4.178;2023-02-28T16:28:29;3.72;;;1.38;;
62796;SDS011;48839;48.546;-4.178;2023-02-28T16:30:57;4.13;;;1.10;;
62796;SDS011;48839;48.546;-4.178;2023-02-28T16:33:24;0.77;;;0.77;;
62796;SDS011;48839;48.546;-4.178;2023-02-28T16:35:50;1.75;;;1.02;;
62796;SDS011;48839;48.546;-4.178;2023-02-28T16:38:16;1.92;;;1.05;;
62796;SDS011;48839;48.546;-4.178;2023-02-28T16:40:42;1.85;;;0.80;;
62796;SDS011;48839;48.546;-4.178;2023-02-28T16:43:12;5.15;;;1.25;;
62796;SDS011;48839;48.546;-4.178;2023-02-28T16:45:39;2.53;;;1.00;;
62796;SDS011;48839;48.546;-4.178;2023-02-28T16:48:07;3.15;;;1.05;;